createdAt,value
2023-02-16T00:05:02.306Z,100.00
2023-02-16T00:15:19.612Z,100.00
2023-02-16T00:25:21.577Z,100.00
2023-02-16T00:35:23.785Z,100.00
2023-02-16T00:45:26.812Z,100.00
2023-02-16T00:55:32.816Z,100.00
2023-02-16T01:05:34.680Z,100.00
2023-02-16T01:15:36.738Z,100.00
2023-02-16T01:25:39.916Z,100.00
2023-02-16T01:35:42.356Z,100.00
2023-02-16T01:45:48.211Z,100.00
2023-02-16T01:55:57.540Z,100.00
2023-02-16T02:05:59.217Z,100.00
2023-02-16T02:16:01.896Z,100.00
2023-02-16T02:26:42.895Z,100.00
2023-02-16T02:36:55.662Z,100.00
2023-02-16T02:46:59.711Z,100.00
2023-02-16T02:57:38.338Z,100.00
2023-02-16T03:07:49.888Z,100.00
2023-02-16T03:18:16.059Z,100.00
2023-02-16T03:28:41.233Z,100.00
2023-02-16T03:38:49.194Z,100.00
2023-02-16T03:48:52.964Z,100.00
2023-02-16T03:58:54.778Z,100.00
2023-02-16T04:08:56.971Z,100.00
2023-02-16T04:18:59.027Z,100.00
2023-02-16T04:29:01.397Z,100.00
2023-02-16T04:39:07.199Z,100.00
2023-02-16T04:49:08.841Z,100.00
2023-02-16T04:59:10.740Z,100.00
2023-02-16T05:09:13.573Z,100.00
2023-02-16T05:19:15.451Z,100.00
2023-02-16T05:29:20.252Z,100.00
2023-02-16T05:39:22.642Z,100.00
2023-02-16T05:49:27.406Z,100.00
2023-02-16T05:59:41.848Z,100.00
2023-02-16T06:09:45.625Z,100.00
2023-02-16T06:19:47.313Z,100.00
2023-02-16T06:29:51.066Z,100.00
2023-02-16T06:39:52.743Z,100.00
2023-02-16T06:49:54.676Z,100.00
2023-02-16T06:59:56.975Z,100.00
2023-02-16T07:09:59.721Z,100.00
2023-02-16T07:20:01.664Z,100.00
2023-02-16T07:30:03.499Z,100.00
2023-02-16T07:40:06.795Z,100.00
2023-02-16T07:50:09.288Z,100.00
2023-02-16T08:00:11.588Z,100.00
2023-02-16T08:10:13.834Z,100.00
2023-02-16T08:20:15.804Z,100.00
2023-02-16T08:30:18.796Z,100.00
2023-02-16T08:40:26.862Z,100.00
2023-02-16T08:50:29.208Z,100.00
2023-02-16T09:00:38.751Z,100.00
2023-02-16T09:10:46.746Z,100.00
2023-02-16T09:20:48.846Z,100.00
2023-02-16T09:30:51.941Z,100.00
2023-02-16T09:40:53.811Z,81.74
2023-02-16T09:50:56.556Z,72.73
2023-02-16T10:01:09.010Z,66.78
2023-02-16T10:11:39.537Z,63.18
2023-02-16T10:21:48.375Z,60.64
2023-02-16T10:32:15.643Z,57.79
2023-02-16T10:42:50.562Z,56.79
2023-02-16T10:52:58.353Z,53.70
2023-02-16T11:03:03.915Z,52.37
2023-02-16T11:13:09.014Z,50.88
2023-02-16T11:23:36.418Z,50.97
2023-02-16T11:33:41.692Z,45.41
2023-02-16T11:43:46.723Z,45.22
2023-02-16T11:54:01.176Z,42.89
2023-02-16T12:04:40.215Z,41.22
2023-02-16T12:15:12.164Z,41.84
2023-02-16T12:25:27.024Z,40.02
2023-02-16T12:35:54.684Z,39.36
2023-02-16T12:46:05.083Z,37.40
2023-02-16T12:56:18.048Z,36.46
2023-02-16T13:06:57.681Z,36.14
2023-02-16T13:17:14.578Z,36.61
2023-02-16T13:27:37.445Z,37.51
2023-02-16T13:38:15.162Z,35.51
2023-02-16T13:48:36.899Z,33.61
2023-02-16T13:58:40.981Z,35.95
2023-02-16T14:08:44.428Z,35.33
2023-02-16T14:18:56.762Z,37.66
2023-02-16T14:29:18.437Z,43.29
2023-02-16T14:39:27.005Z,45.96
2023-02-16T14:50:29.512Z,48.72
2023-02-16T15:00:58.087Z,49.03
2023-02-16T15:11:13.965Z,61.13
2023-02-16T15:21:22.974Z,73.35
2023-02-16T15:31:34.213Z,81.89
2023-02-16T15:41:39.736Z,89.55
2023-02-16T15:51:58.532Z,97.44
2023-02-16T16:02:09.678Z,100.00
2023-02-16T16:12:17.713Z,100.00
2023-02-16T16:22:36.198Z,100.00
2023-02-16T16:32:40.387Z,100.00
2023-02-16T16:43:10.125Z,100.00
2023-02-16T16:53:44.562Z,100.00
2023-02-16T17:03:52.858Z,100.00
2023-02-16T17:13:57.955Z,100.00
2023-02-16T17:34:46.611Z,100.00
2023-02-16T17:44:51.164Z,100.00
2023-02-16T17:54:55.654Z,100.00
2023-02-16T18:04:58.280Z,100.00
2023-02-16T18:15:06.930Z,100.00
2023-02-16T18:25:11.224Z,100.00
2023-02-16T18:35:19.262Z,100.00
2023-02-16T18:45:22.058Z,100.00
2023-02-16T18:55:34.286Z,100.00
2023-02-16T19:05:38.769Z,100.00
2023-02-16T19:15:43.712Z,100.00
2023-02-16T19:25:49.871Z,100.00
2023-02-16T19:36:10.314Z,100.00
2023-02-16T19:57:04.194Z,100.00
2023-02-16T20:07:07.516Z,100.00
2023-02-16T20:17:10.712Z,100.00
2023-02-16T20:27:17.203Z,100.00
2023-02-16T20:37:26.096Z,100.00
2023-02-16T20:47:37.608Z,100.00
2023-02-16T20:57:44.947Z,100.00
2023-02-16T21:07:49.778Z,100.00
2023-02-16T21:17:57.932Z,100.00
2023-02-16T21:28:01.638Z,100.00
2023-02-16T21:38:06.006Z,100.00
2023-02-16T21:48:31.395Z,100.00
2023-02-16T21:58:35.969Z,100.00
2023-02-16T22:08:38.195Z,100.00
2023-02-16T22:18:40.850Z,100.00
2023-02-16T22:28:45.003Z,100.00
2023-02-16T22:38:53.755Z,100.00
2023-02-16T22:49:02.662Z,100.00
2023-02-16T22:59:04.332Z,100.00
2023-02-16T23:09:18.677Z,100.00
2023-02-16T23:19:21.859Z,100.00
2023-02-16T23:29:26.222Z,100.00
2023-02-16T23:39:28.191Z,100.00
2023-02-16T23:49:29.990Z,100.00
2023-02-16T23:59:31.871Z,100.00
